createdAt,value
2022-11-02T00:00:17.617Z,-23474.19
2022-11-02T00:02:20.278Z,-23474.34
2022-11-02T00:04:22.908Z,-23473.72
2022-11-02T00:06:25.564Z,-23478.00
2022-11-02T00:08:28.191Z,-23475.47
2022-11-02T00:10:32.223Z,-23476.09
2022-11-02T00:12:34.934Z,-23475.78
2022-11-02T00:14:37.590Z,-23471.97
2022-11-02T00:16:41.253Z,-23471.66
2022-11-02T00:18:45.620Z,-23471.19
2022-11-02T00:20:48.740Z,-23468.97
2022-11-02T00:22:53.585Z,-23471.81
2022-11-02T00:24:56.726Z,-23467.38
2022-11-02T00:27:01.084Z,-23466.25
2022-11-02T00:29:04.394Z,-23463.09
2022-11-02T00:31:07.009Z,-23462.47
2022-11-02T00:33:09.730Z,-23459.28
2022-11-02T00:35:12.541Z,-23457.69
2022-11-02T00:37:15.106Z,-23457.06
2022-11-02T00:39:17.704Z,-23459.59
2022-11-02T00:41:21.988Z,-23456.44
2022-11-02T00:43:25.940Z,-23454.84
2022-11-02T00:45:28.492Z,-23452.94
2022-11-02T00:47:31.066Z,-23452.47
2022-11-02T00:49:33.682Z,-23452.94
2022-11-02T00:51:36.301Z,-23454.06
2022-11-02T00:53:38.875Z,-23449.78
2022-11-02T00:55:41.462Z,-23450.25
2022-11-02T00:57:44.187Z,-23447.06
2022-11-02T00:59:48.174Z,-23449.44
2022-11-02T01:01:50.910Z,-23446.75
2022-11-02T01:03:53.613Z,-23448.66
2022-11-02T01:05:56.221Z,-23447.53
2022-11-02T01:07:58.833Z,-23448.50
2022-11-02T01:10:01.509Z,-23448.97
2022-11-02T01:12:04.121Z,-23449.59
2022-11-02T01:14:06.682Z,-23450.25
2022-11-02T01:16:11.883Z,-23449.44
2022-11-02T01:18:14.431Z,-23450.09
2022-11-02T01:20:17.158Z,-23450.56
2022-11-02T01:22:19.732Z,-23450.09
2022-11-02T01:24:22.321Z,-23451.34
2022-11-02T01:26:24.965Z,-23452.94
2022-11-02T01:28:27.565Z,-23453.41
2022-11-02T01:30:30.216Z,-23453.91
2022-11-02T01:32:34.200Z,-23455.47
2022-11-02T01:34:36.954Z,-23456.91
2022-11-02T01:36:39.608Z,-23456.91
2022-11-02T01:38:42.413Z,-23457.22
2022-11-02T01:40:45.182Z,-23456.28
2022-11-02T01:42:47.756Z,-23456.44
2022-11-02T01:44:50.414Z,-23457.06
2022-11-02T01:46:55.927Z,-23455.78
2022-11-02T01:49:04.546Z,-23457.06
2022-11-02T01:51:11.286Z,-23460.09
2022-11-02T01:53:13.795Z,-23461.50
2022-11-02T01:55:21.004Z,-23459.75
2022-11-02T01:57:25.024Z,-23461.81
2022-11-02T01:59:33.392Z,-23462.78
2022-11-02T02:01:36.465Z,-23465.63
2022-11-02T02:03:40.991Z,-23464.38
2022-11-02T02:05:50.288Z,-23464.84
2022-11-02T02:07:53.703Z,-23463.25
2022-11-02T02:09:56.882Z,-23461.81
2022-11-02T02:11:59.453Z,-23460.41
2022-11-02T02:14:05.606Z,-23461.97
2022-11-02T02:16:16.877Z,-23463.72
2022-11-02T02:18:24.899Z,-23467.84
2022-11-02T02:20:52.360Z,-23462.13
2022-11-02T02:23:14.528Z,-23463.41
2022-11-02T02:25:28.937Z,-23461.50
2022-11-02T02:27:46.757Z,-23459.91
2022-11-02T02:30:09.565Z,-23460.56
2022-11-02T02:32:17.591Z,-23458.50
2022-11-02T02:34:24.326Z,-23458.50
2022-11-02T02:36:30.614Z,-23463.25
2022-11-02T02:38:36.708Z,-23458.81
2022-11-02T02:40:46.693Z,-23458.97
2022-11-02T02:42:56.273Z,-23455.16
2022-11-02T02:45:05.554Z,-23456.13
2022-11-02T02:47:13.685Z,-23457.22
2022-11-02T02:49:22.595Z,-23456.44
2022-11-02T02:51:29.556Z,-23456.44
2022-11-02T02:53:37.057Z,-23455.78
2022-11-02T02:55:44.147Z,-23456.13
2022-11-02T02:57:48.224Z,-23456.13
2022-11-02T02:59:52.155Z,-23461.81
2022-11-02T03:01:56.821Z,-23458.03
2022-11-02T03:03:59.557Z,-23461.97
2022-11-02T03:06:11.101Z,-23461.97
2022-11-02T03:08:17.402Z,-23458.03
2022-11-02T03:10:23.108Z,-23459.59
2022-11-02T03:12:39.490Z,-23457.22
2022-11-02T03:14:51.158Z,-23457.69
2022-11-02T03:17:10.299Z,-23460.09
2022-11-02T03:19:21.585Z,-23463.41
2022-11-02T03:21:29.217Z,-23462.63
2022-11-02T03:23:36.314Z,-23464.19
2022-11-02T03:25:48.486Z,-23463.72
2022-11-02T03:27:55.998Z,-23463.41
2022-11-02T03:30:05.233Z,-23467.22
2022-11-02T03:32:13.729Z,-23465.63
2022-11-02T03:34:25.539Z,-23465.94
2022-11-02T03:36:34.476Z,-23465.00
2022-11-02T03:38:45.308Z,-23466.56
2022-11-02T03:40:51.694Z,-23465.63
2022-11-02T03:42:55.772Z,-23466.25
2022-11-02T03:45:03.532Z,-23464.69
2022-11-02T03:47:09.780Z,-23465.31
2022-11-02T03:49:17.622Z,-23465.63
2022-11-02T03:51:23.843Z,-23467.06
2022-11-02T03:53:33.546Z,-23467.22
2022-11-02T03:55:40.502Z,-23468.16
2022-11-02T03:57:46.893Z,-23466.09
2022-11-02T03:59:49.477Z,-23467.38
2022-11-02T04:01:53.510Z,-23466.25
2022-11-02T04:03:56.244Z,-23465.94
2022-11-02T04:06:00.234Z,-23468.81
2022-11-02T04:08:21.999Z,-23471.66
2022-11-02T04:10:24.643Z,-23473.25
2022-11-02T04:12:44.727Z,-23475.47
2022-11-02T04:14:47.674Z,-23473.09
2022-11-02T04:16:50.338Z,-23474.03
2022-11-02T04:19:10.329Z,-23474.66
2022-11-02T04:21:14.271Z,-23477.69
2022-11-02T04:23:34.569Z,-23476.09
2022-11-02T04:25:36.234Z,-23475.16
2022-11-02T04:27:38.945Z,-23473.88
2022-11-02T04:29:41.957Z,-23470.53
2022-11-02T04:31:44.565Z,-23470.38
2022-11-02T04:33:46.122Z,-23469.28
2022-11-02T04:35:48.701Z,-23468.16
2022-11-02T04:38:11.106Z,-23466.56
2022-11-02T04:40:13.937Z,-23465.63
2022-11-02T04:42:16.568Z,-23465.63
2022-11-02T04:44:19.559Z,-23468.50
2022-11-02T04:46:23.830Z,-23469.13
2022-11-02T04:48:26.398Z,-23469.44
2022-11-02T04:50:29.094Z,-23470.69
2022-11-02T04:52:31.658Z,-23472.91
2022-11-02T04:54:35.622Z,-23471.66
2022-11-02T04:56:38.250Z,-23472.59
2022-11-02T04:58:41.049Z,-23474.34
2022-11-02T05:00:43.950Z,-23471.34
2022-11-02T05:02:47.721Z,-23469.44
2022-11-02T05:04:50.437Z,-23469.59
2022-11-02T05:06:54.524Z,-23465.31
2022-11-02T05:08:59.079Z,-23463.41
2022-11-02T05:11:03.063Z,-23460.88
2022-11-02T05:13:06.103Z,-23460.56
2022-11-02T05:15:09.520Z,-23459.28
2022-11-02T05:17:13.303Z,-23460.25
2022-11-02T05:19:15.896Z,-23459.59
2022-11-02T05:21:18.526Z,-23457.53
2022-11-02T05:23:22.423Z,-23458.34
2022-11-02T05:25:25.002Z,-23457.53
2022-11-02T05:27:28.977Z,-23458.66
2022-11-02T05:29:31.592Z,-23457.69
2022-11-02T05:31:34.224Z,-23458.81
2022-11-02T05:33:37.086Z,-23458.34
2022-11-02T05:35:39.696Z,-23457.69
2022-11-02T05:37:42.277Z,-23457.06
2022-11-02T05:39:47.790Z,-23456.44
2022-11-02T05:41:52.973Z,-23458.19
2022-11-02T05:43:56.930Z,-23457.69
2022-11-02T05:46:01.495Z,-23454.69
2022-11-02T05:48:06.599Z,-23455.00
2022-11-02T05:50:10.927Z,-23454.53
2022-11-02T05:52:13.843Z,-23452.94
2022-11-02T05:54:16.463Z,-23452.78
2022-11-02T05:56:24.616Z,-23453.56
2022-11-02T05:58:28.206Z,-23452.00
2022-11-02T06:00:32.184Z,-23455.16
2022-11-02T06:02:35.207Z,-23456.59
2022-11-02T06:04:37.809Z,-23455.63
2022-11-02T06:06:40.460Z,-23455.78
2022-11-02T06:08:43.128Z,-23456.75
2022-11-02T06:10:45.753Z,-23458.66
2022-11-02T06:12:48.396Z,-23460.25
2022-11-02T06:14:51.031Z,-23461.81
2022-11-02T06:16:55.058Z,-23460.88
2022-11-02T06:18:57.936Z,-23462.47
2022-11-02T06:21:00.690Z,-23463.72
2022-11-02T06:23:03.963Z,-23463.41
2022-11-02T06:25:07.783Z,-23463.41
2022-11-02T06:27:10.410Z,-23463.09
2022-11-02T06:29:13.021Z,-23465.16
2022-11-02T06:31:17.314Z,-23467.84
2022-11-02T06:33:21.574Z,-23469.44
2022-11-02T06:35:24.521Z,-23472.44
2022-11-02T06:37:27.148Z,-23471.81
2022-11-02T06:39:29.839Z,-23473.09
2022-11-02T06:41:32.494Z,-23471.81
2022-11-02T06:43:38.081Z,-23474.34
2022-11-02T06:45:40.683Z,-23476.41
2022-11-02T06:47:43.291Z,-23483.06
2022-11-02T06:49:47.263Z,-23487.19
2022-11-02T06:51:51.861Z,-23489.09
2022-11-02T06:53:54.476Z,-23492.91
2022-11-02T06:55:58.718Z,-23494.16
2022-11-02T06:58:01.332Z,-23494.81
2022-11-02T07:00:05.241Z,-23498.28
2022-11-02T07:02:09.432Z,-23498.59
2022-11-02T07:04:12.114Z,-23498.28
2022-11-02T07:06:16.075Z,-23499.41
2022-11-02T07:08:18.782Z,-23498.44
2022-11-02T07:10:21.451Z,-23499.56
2022-11-02T07:12:24.235Z,-23500.03
2022-11-02T07:14:26.843Z,-23498.13
2022-11-02T07:16:30.615Z,-23500.19
2022-11-02T07:18:33.216Z,-23501.47
2022-11-02T07:20:36.746Z,-23498.94
2022-11-02T07:22:40.761Z,-23501.47
2022-11-02T07:24:43.345Z,-23498.59
2022-11-02T07:26:48.959Z,-23503.19
2022-11-02T07:28:56.561Z,-23503.03
2022-11-02T07:31:01.840Z,-23507.78
2022-11-02T07:33:04.955Z,-23509.69
2022-11-02T07:35:09.738Z,-23508.09
2022-11-02T07:37:12.421Z,-23509.53
2022-11-02T07:39:16.390Z,-23511.28
2022-11-02T07:41:19.040Z,-23511.91
2022-11-02T07:43:21.677Z,-23514.59
2022-11-02T07:45:25.902Z,-23513.19
2022-11-02T07:47:30.149Z,-23520.00
2022-11-02T07:49:32.781Z,-23521.25
2022-11-02T07:51:35.571Z,-23522.38
2022-11-02T07:53:38.356Z,-23525.84
2022-11-02T07:55:42.308Z,-23520.47
2022-11-02T07:57:53.144Z,-23526.47
2022-11-02T07:59:55.757Z,-23531.53
2022-11-02T08:01:58.655Z,-23529.16
2022-11-02T08:04:01.320Z,-23532.19
2022-11-02T08:06:04.318Z,-23532.19
2022-11-02T08:08:08.839Z,-23534.38
2022-11-02T08:10:11.591Z,-23537.25
2022-11-02T08:12:15.563Z,-23545.47
2022-11-02T08:14:18.159Z,-23545.47
2022-11-02T08:16:20.801Z,-23549.59
2022-11-02T08:18:24.903Z,-23549.59
2022-11-02T08:20:27.545Z,-23544.22
2022-11-02T08:22:30.350Z,-23548.47
2022-11-02T08:24:33.007Z,-23553.69
2022-11-02T08:26:36.936Z,-23553.22
2022-11-02T08:28:42.030Z,-23556.22
2022-11-02T08:30:44.751Z,-23555.28
2022-11-02T08:32:47.354Z,-23568.56
2022-11-02T08:34:49.986Z,-23573.94
2022-11-02T08:36:52.654Z,-23576.78
2022-11-02T08:38:55.374Z,-23574.88
2022-11-02T08:40:58.158Z,-23576.16
2022-11-02T08:43:02.224Z,-23576.31
2022-11-02T08:45:07.811Z,-23572.53
2022-11-02T08:47:10.688Z,-23593.53
2022-11-02T08:49:13.313Z,-23588.97
2022-11-02T08:51:16.190Z,-23581.53
2022-11-02T08:53:19.222Z,-23590.38
2022-11-02T08:55:22.025Z,-23598.59
2022-11-02T08:57:24.641Z,-23598.59
2022-11-02T08:59:27.270Z,-23604.75
2022-11-02T09:01:31.482Z,-23601.13
2022-11-02T09:03:34.135Z,-23601.59
2022-11-02T09:05:39.582Z,-23607.75
2022-11-02T09:07:42.289Z,-23611.88
2022-11-02T09:09:45.251Z,-23612.81
2022-11-02T09:11:50.825Z,-23615.03
2022-11-02T09:13:56.888Z,-23622.44
2022-11-02T09:16:00.787Z,-23603.34
2022-11-02T09:18:05.173Z,-23598.91
2022-11-02T09:20:09.044Z,-23591.00
2022-11-02T09:22:12.275Z,-23599.84
2022-11-02T09:24:14.933Z,-23596.06
2022-11-02T09:26:17.674Z,-23597.34
2022-11-02T09:28:20.419Z,-23595.59
2022-11-02T09:30:24.650Z,-23599.53
2022-11-02T09:32:27.657Z,-23594.50
2022-11-02T09:34:31.633Z,-23595.44
2022-11-02T09:36:35.209Z,-23598.91
2022-11-02T09:38:38.147Z,-23592.28
2022-11-02T09:40:44.484Z,-23591.97
2022-11-02T09:42:59.806Z,-23592.59
2022-11-02T09:45:05.683Z,-23593.53
2022-11-02T09:48:03.357Z,-23594.97
2022-11-02T09:49:37.374Z,-23597.97
2022-11-02T09:51:43.163Z,-23594.50
2022-11-02T09:53:57.519Z,-23601.13
2022-11-02T09:56:03.250Z,-23601.44
2022-11-02T09:58:13.026Z,-23602.06
2022-11-02T10:00:18.468Z,-23613.28
2022-11-02T10:02:32.067Z,-23603.34
2022-11-02T10:05:01.131Z,-23610.59
2022-11-02T10:07:10.823Z,-23613.44
2022-11-02T10:09:21.138Z,-23609.19
2022-11-02T10:11:38.848Z,-23613.13
2022-11-02T10:13:45.247Z,-23614.56
2022-11-02T10:15:51.847Z,-23610.13
2022-11-02T10:17:58.772Z,-23614.88
2022-11-02T10:20:08.138Z,-23612.50
2022-11-02T10:22:15.193Z,-23614.38
2022-11-02T10:24:25.330Z,-23611.53
2022-11-02T10:26:30.592Z,-23614.06
2022-11-02T10:28:37.368Z,-23607.59
2022-11-02T10:30:40.896Z,-23614.56
2022-11-02T10:32:45.039Z,-23616.28
2022-11-02T10:34:58.466Z,-23606.81
2022-11-02T10:37:20.785Z,-23609.34
2022-11-02T10:39:32.140Z,-23618.66
2022-11-02T10:41:53.683Z,-23600.50
2022-11-02T10:44:09.979Z,-23611.53
2022-11-02T10:46:38.102Z,-23608.38
2022-11-02T10:48:49.461Z,-23616.28
2022-11-02T10:50:58.729Z,-23603.66
2022-11-02T10:53:35.227Z,-23611.88
2022-11-02T10:55:32.995Z,-23620.72
2022-11-02T10:57:39.659Z,-23610.91
2022-11-02T10:59:42.535Z,-23612.50
2022-11-02T11:02:05.108Z,-23610.91
2022-11-02T11:04:22.236Z,-23617.69
2022-11-02T11:06:25.899Z,-23610.28
2022-11-02T11:08:51.957Z,-23612.97
2022-11-02T11:10:54.579Z,-23611.38
2022-11-02T11:12:57.858Z,-23612.50
2022-11-02T11:19:53.272Z,-23612.03
2022-11-02T11:21:56.571Z,-23620.88
2022-11-02T11:24:19.892Z,-23607.44
2022-11-02T11:26:29.028Z,-23618.19
2022-11-02T11:28:34.504Z,-23621.66
2022-11-02T11:30:58.998Z,-23611.53
2022-11-02T11:33:04.756Z,-23616.28
2022-11-02T11:35:17.401Z,-23615.66
2022-11-02T11:37:20.251Z,-23611.38
2022-11-02T11:39:29.308Z,-23618.50
2022-11-02T11:41:35.208Z,-23621.34
2022-11-02T11:43:39.341Z,-23615.19
2022-11-02T11:45:57.280Z,-23626.06
2022-11-02T11:48:08.437Z,-23623.22
2022-11-02T11:50:21.027Z,-23636.03
2022-11-02T11:52:32.057Z,-23632.38
2022-11-02T11:54:39.008Z,-23642.97
2022-11-02T11:56:41.489Z,-23622.91
2022-11-02T11:58:52.241Z,-23626.41
2022-11-02T12:01:09.138Z,-23630.97
2022-11-02T12:03:16.318Z,-23647.38
2022-11-02T12:05:20.964Z,-23649.13
2022-11-02T12:08:00.641Z,-23644.06
2022-11-02T12:10:15.661Z,-23631.44
2022-11-02T12:12:31.405Z,-23640.75
2022-11-02T12:14:48.581Z,-23647.53
2022-11-02T12:17:07.455Z,-23643.13
2022-11-02T12:19:23.143Z,-23651.63
2022-11-02T12:21:45.072Z,-23647.84
2022-11-02T12:24:06.398Z,-23651.00
2022-11-02T12:26:23.168Z,-23646.13
2022-11-02T12:28:35.813Z,-23643.28
2022-11-02T12:30:51.059Z,-23645.00
2022-11-02T12:33:07.917Z,-23647.84
2022-11-02T12:35:29.811Z,-23645.31
2022-11-02T12:37:45.425Z,-23636.50
2022-11-02T12:40:03.861Z,-23635.22
2022-11-02T12:42:21.981Z,-23623.88
2022-11-02T12:44:39.878Z,-23622.28
2022-11-02T12:46:49.278Z,-23612.66
2022-11-02T12:49:00.973Z,-23628.59
2022-11-02T12:51:08.441Z,-23643.44
2022-11-02T12:53:37.715Z,-23635.06
2022-11-02T12:55:45.869Z,-23633.66
2022-11-02T12:57:50.394Z,-23639.19
2022-11-02T12:59:56.553Z,-23674.81
2022-11-02T13:04:19.794Z,-23673.72
2022-11-02T13:06:30.145Z,-23657.94
2022-11-02T13:08:37.319Z,-23687.09
2022-11-02T13:10:44.517Z,-23694.50
2022-11-02T13:12:54.001Z,-23696.41
2022-11-02T13:14:59.380Z,-23703.34
2022-11-02T13:17:06.826Z,-23702.38
2022-11-02T13:19:16.629Z,-23688.53
2022-11-02T13:21:28.635Z,-23688.84
2022-11-02T13:23:36.415Z,-23701.13
2022-11-02T13:25:43.680Z,-23684.41
2022-11-02T13:27:53.246Z,-23674.34
2022-11-02T13:29:59.692Z,-23673.56
2022-11-02T13:32:06.527Z,-23680.78
2022-11-02T13:34:15.908Z,-23679.06
2022-11-02T13:36:19.487Z,-23682.53
2022-11-02T13:38:32.185Z,-23676.84
2022-11-02T13:40:41.096Z,-23691.19
2022-11-02T13:43:18.774Z,-23682.53
2022-11-02T13:45:40.008Z,-23671.19
2022-11-02T13:48:13.802Z,-23672.44
2022-11-02T13:50:20.330Z,-23671.81
2022-11-02T13:52:25.913Z,-23665.19
2022-11-02T13:54:33.524Z,-23670.72
2022-11-02T13:56:38.289Z,-23666.63
2022-11-02T13:58:48.566Z,-23666.16
2022-11-02T14:00:52.874Z,-23656.06
2022-11-02T14:03:00.051Z,-23659.69
2022-11-02T14:05:03.437Z,-23662.03
2022-11-02T14:07:09.168Z,-23658.88
2022-11-02T14:09:23.979Z,-23655.59
2022-11-02T14:11:35.092Z,-23653.84
2022-11-02T14:14:25.329Z,-23661.09
2022-11-02T14:16:57.862Z,-23663.63
2022-11-02T14:19:21.884Z,-23646.13
2022-11-02T14:21:43.532Z,-23644.38
2022-11-02T14:23:46.180Z,-23658.09
2022-11-02T14:25:49.834Z,-23657.63
2022-11-02T14:27:55.270Z,-23643.75
2022-11-02T14:29:59.881Z,-23659.22
2022-11-02T14:32:06.096Z,-23661.88
2022-11-02T14:34:33.545Z,-23658.88
2022-11-02T14:36:54.647Z,-23649.25
2022-11-02T14:41:32.714Z,-23631.44
2022-11-02T14:43:58.385Z,-23639.34
2022-11-02T14:46:17.550Z,-23634.59
2022-11-02T14:48:20.287Z,-23623.88
2022-11-02T14:50:23.139Z,-23625.59
2022-11-02T14:52:29.240Z,-23618.66
2022-11-02T14:54:34.556Z,-23620.09
2022-11-02T14:56:53.786Z,-23620.09
2022-11-02T14:58:58.626Z,-23616.59
2022-11-02T15:01:03.820Z,-23611.22
2022-11-02T15:03:27.627Z,-23614.88
2022-11-02T15:05:35.040Z,-23603.97
2022-11-02T15:07:42.694Z,-23598.91
2022-11-02T15:09:59.757Z,-23598.59
2022-11-02T15:12:26.827Z,-23595.13
2022-11-02T15:14:46.795Z,-23591.97
2022-11-02T15:16:49.420Z,-23590.84
2022-11-02T15:18:55.549Z,-23588.50
2022-11-02T15:21:25.164Z,-23587.69
2022-11-02T15:23:31.524Z,-23585.00
2022-11-02T15:25:37.801Z,-23586.59
2022-11-02T15:27:42.454Z,-23584.22
2022-11-02T15:29:45.906Z,-23583.75
2022-11-02T15:31:54.774Z,-23586.13
2022-11-02T15:34:01.563Z,-23582.16
2022-11-02T15:36:07.637Z,-23576.16
2022-11-02T15:38:20.029Z,-23574.88
2022-11-02T15:40:28.671Z,-23573.78
2022-11-02T15:42:44.326Z,-23572.34
2022-11-02T15:45:27.033Z,-23568.41
2022-11-02T15:47:45.242Z,-23568.25
2022-11-02T15:50:17.221Z,-23566.81
2022-11-02T15:52:31.202Z,-23560.66
2022-11-02T15:54:53.684Z,-23554.03
2022-11-02T15:57:06.942Z,-23553.53
2022-11-02T15:59:47.180Z,-23554.19
2022-11-02T16:02:09.808Z,-23552.75
2022-11-02T16:04:20.958Z,-23552.75
2022-11-02T16:06:30.704Z,-23548.31
2022-11-02T16:08:35.284Z,-23542.00
2022-11-02T16:10:37.904Z,-23542.00
2022-11-02T16:12:40.639Z,-23541.34
2022-11-02T16:14:44.742Z,-23542.16
2022-11-02T16:16:48.463Z,-23543.25
2022-11-02T16:18:53.951Z,-23538.84
2022-11-02T16:21:01.815Z,-23538.50
2022-11-02T16:23:07.522Z,-23542.00
2022-11-02T16:25:15.187Z,-23540.56
2022-11-02T16:27:18.012Z,-23538.66
2022-11-02T16:29:28.422Z,-23537.09
2022-11-02T16:31:31.930Z,-23533.44
2022-11-02T16:33:38.984Z,-23530.28
2022-11-02T16:35:41.926Z,-23537.41
2022-11-02T16:37:45.232Z,-23537.09
2022-11-02T16:39:49.428Z,-23536.59
2022-11-02T16:41:55.667Z,-23531.22
2022-11-02T16:44:01.238Z,-23525.84
2022-11-02T16:46:06.392Z,-23520.31
2022-11-02T16:48:21.091Z,-23516.34
2022-11-02T16:50:25.293Z,-23517.28
2022-11-02T16:52:31.855Z,-23520.78
2022-11-02T16:54:41.985Z,-23520.00
2022-11-02T16:56:49.837Z,-23517.63
2022-11-02T16:58:59.732Z,-23513.34
2022-11-02T17:01:05.325Z,-23516.50
2022-11-02T17:03:10.422Z,-23516.66
2022-11-02T17:05:17.376Z,-23510.97
2022-11-02T17:07:23.938Z,-23511.28
2022-11-02T17:09:28.909Z,-23514.13
2022-11-02T17:11:33.039Z,-23515.06
2022-11-02T17:13:44.476Z,-23521.72
2022-11-02T17:15:49.946Z,-23521.41
2022-11-02T17:18:26.176Z,-23520.94
2022-11-02T17:20:28.832Z,-23515.41
2022-11-02T17:22:36.171Z,-23515.72
2022-11-02T17:24:39.196Z,-23517.28
2022-11-02T17:26:43.423Z,-23516.97
2022-11-02T17:28:47.328Z,-23513.81
2022-11-02T17:30:50.297Z,-23514.13
2022-11-02T17:32:52.936Z,-23519.19
2022-11-02T17:34:59.207Z,-23511.59
2022-11-02T17:37:01.816Z,-23512.53
2022-11-02T17:39:05.875Z,-23512.06
2022-11-02T17:41:27.994Z,-23509.84
2022-11-02T17:43:30.694Z,-23507.00
2022-11-02T17:45:37.158Z,-23507.78
2022-11-02T17:47:39.838Z,-23507.16
2022-11-02T17:49:42.554Z,-23502.72
2022-11-02T17:51:46.602Z,-23500.81
2022-11-02T17:53:50.240Z,-23501.94
2022-11-02T17:55:53.823Z,-23500.19
2022-11-02T17:57:57.369Z,-23504.31
2022-11-02T18:00:00.024Z,-23504.00
2022-11-02T18:02:02.832Z,-23498.44
2022-11-02T18:04:05.890Z,-23498.94
2022-11-02T18:06:08.795Z,-23497.97
2022-11-02T18:08:13.700Z,-23499.25
2022-11-02T18:10:17.126Z,-23495.91
2022-11-02T18:12:19.755Z,-23492.25
2022-11-02T18:14:22.440Z,-23489.41
2022-11-02T18:16:25.107Z,-23489.72
2022-11-02T18:18:27.797Z,-23486.25
2022-11-02T18:20:31.877Z,-23490.22
2022-11-02T18:22:34.682Z,-23489.56
2022-11-02T18:24:38.716Z,-23485.13
2022-11-02T18:26:44.256Z,-23485.13
2022-11-02T18:28:49.681Z,-23485.28
2022-11-02T18:30:52.278Z,-23487.19
2022-11-02T18:32:57.485Z,-23490.03
2022-11-02T18:35:00.137Z,-23493.06
2022-11-02T18:37:03.371Z,-23487.19
2022-11-02T18:39:06.046Z,-23484.97
2022-11-02T18:41:25.003Z,-23490.03
2022-11-02T18:43:27.651Z,-23489.09
2022-11-02T18:45:30.871Z,-23484.66
2022-11-02T18:47:33.853Z,-23478.47
2022-11-02T18:49:36.568Z,-23477.19
2022-11-02T18:51:42.820Z,-23476.72
2022-11-02T18:53:45.609Z,-23476.09
2022-11-02T18:55:48.307Z,-23474.81
2022-11-02T18:57:52.325Z,-23469.91
2022-11-02T18:59:55.031Z,-23473.25
2022-11-02T19:01:57.868Z,-23472.91
2022-11-02T19:04:01.303Z,-23473.56
2022-11-02T19:06:22.445Z,-23478.16
2022-11-02T19:08:42.818Z,-23469.59
2022-11-02T19:10:48.272Z,-23469.75
2022-11-02T19:12:52.308Z,-23469.13
2022-11-02T19:14:55.619Z,-23465.16
2022-11-02T19:16:58.219Z,-23462.47
2022-11-02T19:19:00.897Z,-23463.72
2022-11-02T19:21:03.507Z,-23461.03
2022-11-02T19:23:06.392Z,-23464.38
2022-11-02T19:25:11.890Z,-23469.28
2022-11-02T19:27:16.293Z,-23471.19
2022-11-02T19:29:20.583Z,-23471.66
2022-11-02T19:31:23.231Z,-23472.59
2022-11-02T19:33:25.852Z,-23470.22
2022-11-02T19:35:28.486Z,-23469.13
2022-11-02T19:37:34.569Z,-23464.53
2022-11-02T19:39:37.644Z,-23465.31
2022-11-02T19:41:40.313Z,-23462.94
2022-11-02T19:43:45.054Z,-23461.81
2022-11-02T19:45:49.030Z,-23456.75
2022-11-02T19:47:51.628Z,-23456.13
2022-11-02T19:49:54.298Z,-23458.66
2022-11-02T19:51:56.967Z,-23456.59
2022-11-02T19:54:00.986Z,-23454.22
2022-11-02T19:56:03.833Z,-23455.16
2022-11-02T19:58:07.677Z,-23458.03
2022-11-02T20:00:12.254Z,-23459.28
2022-11-02T20:02:16.411Z,-23457.69
2022-11-02T20:04:19.156Z,-23453.56
2022-11-02T20:06:24.281Z,-23451.03
2022-11-02T20:08:27.426Z,-23449.78
2022-11-02T20:10:30.004Z,-23452.31
2022-11-02T20:12:34.407Z,-23450.25
2022-11-02T20:14:38.259Z,-23447.88
2022-11-02T20:16:41.618Z,-23449.44
2022-11-02T20:18:47.589Z,-23446.59
2022-11-02T20:20:52.313Z,-23447.53
2022-11-02T20:22:54.886Z,-23447.53
2022-11-02T20:24:57.935Z,-23445.66
2022-11-02T20:27:02.846Z,-23445.47
2022-11-02T20:29:07.040Z,-23445.00
2022-11-02T20:31:10.944Z,-23441.19
2022-11-02T20:33:13.635Z,-23442.00
2022-11-02T20:35:22.749Z,-23441.84
2022-11-02T20:37:25.665Z,-23445.81
2022-11-02T20:39:28.368Z,-23443.75
2022-11-02T20:41:31.078Z,-23443.09
2022-11-02T20:43:33.705Z,-23443.91
2022-11-02T20:45:36.367Z,-23442.63
2022-11-02T20:47:39.254Z,-23437.22
2022-11-02T20:49:50.507Z,-23437.41
2022-11-02T20:51:55.485Z,-23434.53
2022-11-02T20:53:58.224Z,-23436.44
2022-11-02T20:56:01.896Z,-23435.00
2022-11-02T20:58:04.582Z,-23438.03
2022-11-02T21:00:08.613Z,-23437.06
2022-11-02T21:02:12.423Z,-23438.97
2022-11-02T21:04:20.288Z,-23440.56
2022-11-02T21:06:23.677Z,-23442.78
2022-11-02T21:08:27.781Z,-23436.28
2022-11-02T21:10:30.554Z,-23434.53
2022-11-02T21:12:50.940Z,-23432.00
2022-11-02T21:14:53.556Z,-23431.53
2022-11-02T21:16:56.374Z,-23430.72
2022-11-02T21:18:59.061Z,-23430.41
2022-11-02T21:21:05.856Z,-23428.50
2022-11-02T21:23:08.899Z,-23426.59
2022-11-02T21:25:13.241Z,-23427.72
2022-11-02T21:27:21.286Z,-23426.59
2022-11-02T21:29:24.237Z,-23427.06
2022-11-02T21:31:26.888Z,-23427.53
2022-11-02T21:33:29.845Z,-23431.69
2022-11-02T21:35:32.477Z,-23429.78
2022-11-02T21:37:35.097Z,-23431.34
2022-11-02T21:39:37.914Z,-23427.06
2022-11-02T21:41:42.076Z,-23426.28
2022-11-02T21:43:44.718Z,-23426.44
2022-11-02T21:45:52.619Z,-23425.31
2022-11-02T21:47:55.296Z,-23427.84
2022-11-02T21:49:57.964Z,-23426.28
2022-11-02T21:52:00.573Z,-23428.81
2022-11-02T21:54:03.253Z,-23427.22
2022-11-02T21:56:09.730Z,-23426.44
2022-11-02T21:58:14.213Z,-23426.59
2022-11-02T22:00:17.200Z,-23423.56
2022-11-02T22:02:18.962Z,-23422.16
2022-11-02T22:04:25.335Z,-23421.19
2022-11-02T22:06:31.309Z,-23419.13
2022-11-02T22:08:40.298Z,-23421.34
2022-11-02T22:10:42.972Z,-23420.56
2022-11-02T22:13:03.656Z,-23419.28
2022-11-02T22:15:09.690Z,-23417.69
2022-11-02T22:17:16.824Z,-23420.25
2022-11-02T22:19:31.268Z,-23420.56
2022-11-02T22:21:36.008Z,-23419.94
2022-11-02T22:23:38.922Z,-23418.66
2022-11-02T22:25:41.613Z,-23419.44
2022-11-02T22:27:44.230Z,-23422.78
2022-11-02T22:29:46.806Z,-23416.44
2022-11-02T22:31:51.454Z,-23415.78
2022-11-02T22:33:56.456Z,-23414.53
2022-11-02T22:35:59.059Z,-23416.59
2022-11-02T22:38:19.409Z,-23420.88
2022-11-02T22:40:22.003Z,-23419.13
2022-11-02T22:42:24.703Z,-23416.09
2022-11-02T22:44:27.457Z,-23419.59
2022-11-02T22:46:31.345Z,-23417.84
2022-11-02T22:48:35.824Z,-23415.16
2022-11-02T22:50:38.489Z,-23415.47
2022-11-02T22:52:41.079Z,-23415.78
2022-11-02T22:54:43.842Z,-23417.06
2022-11-02T22:56:48.314Z,-23418.66
2022-11-02T22:58:52.278Z,-23418.97
2022-11-02T23:00:55.670Z,-23416.44
2022-11-02T23:02:58.385Z,-23412.78
2022-11-02T23:05:02.435Z,-23412.31
2022-11-02T23:07:04.993Z,-23413.56
2022-11-02T23:09:08.131Z,-23410.88
2022-11-02T23:11:28.441Z,-23410.72
2022-11-02T23:13:31.285Z,-23411.03
2022-11-02T23:15:33.922Z,-23408.81
2022-11-02T23:17:36.522Z,-23411.19
2022-11-02T23:19:38.289Z,-23413.56
2022-11-02T23:21:44.249Z,-23410.41
2022-11-02T23:24:04.672Z,-23409.13
2022-11-02T23:26:06.349Z,-23409.44
2022-11-02T23:28:26.861Z,-23410.06
2022-11-02T23:30:50.251Z,-23404.84
2022-11-02T23:32:52.869Z,-23409.13
2022-11-02T23:35:14.859Z,-23408.16
2022-11-02T23:37:18.882Z,-23406.41
2022-11-02T23:39:38.203Z,-23409.91
2022-11-02T23:41:41.556Z,-23404.84
2022-11-02T23:43:44.311Z,-23405.00
2022-11-02T23:45:46.922Z,-23405.94
2022-11-02T23:47:57.414Z,-23404.03
2022-11-02T23:50:00.056Z,-23401.19
2022-11-02T23:52:20.194Z,-23403.25
2022-11-02T23:54:41.932Z,-23401.34
2022-11-02T23:56:44.709Z,-23402.63
2022-11-02T23:58:47.545Z,-23399.59
